• Join FlightAware (Why Join?)
  • Login
  • US Flag 
03:45AM EDT


 

Airport Tracker/Info


-or-


 

Live Flight TrackerFlight Track Log ✈ N589H ✈ 30-Jul-2014 ✈ MGGT / GUA - KPIE

Flight Track Log - Related Links

Times and Time Zones

All times are in EDT time to prevent confusion due to time zone crossing. See the N589H flight status page for this flight to view local times or setup timezone preferences in your user account.

Time Position Orientation Groundspeed Altitude Reporting Facility
EDT Latitude Longitude Course Direction KTS MPH feet Rate Location/Type
05:11AM 23.6517 -84.6667 26° Northeast 339 390 30,900  Level Miami Center
05:11AM 23.7006 -84.6411 26° Northeast 340 391 30,900  Level Miami Center
05:12AM 23.7864 -84.6000 24° Northeast 340 391 30,900  Level Miami Center
05:14AM 23.8753 -84.5619 21° North 339 390 30,900  Level Miami Center
05:15AM 23.9597 -84.5225 23° Northeast 338 389 30,900  Level Miami Center
05:16AM 24.0500 -84.4847 21° North 338 389 30,900  Level Miami Center
05:17AM 24.1361 -84.4458 22° Northeast 338 389 30,900  Level Miami Center
05:18AM 24.2239 -84.4061 22° Northeast 338 389 30,900  Level Miami Center
05:19AM 24.3103 -84.3669 22° Northeast 338 389 30,900  Level Miami Center
05:20AM 24.3950 -84.3272 23° Northeast 336 387 30,900  Level Miami Center
05:21AM 24.4819 -84.2872 23° Northeast 336 387 30,900  Level Miami Center
05:22AM 24.5692 -84.2486 22° Northeast 336 387 30,900  Level Miami Center
05:23AM 24.6733 -84.2006 23° Northeast 337 388 30,900  Level Miami Center
05:24AM 24.7611 -84.1617 22° Northeast 337 388 30,900  Level Miami Center
05:25AM 24.8506 -84.1211 22° Northeast 340 391 30,900  Level Miami Center
05:26AM 24.9400 -84.0806 22° Northeast 342 394 30,900  Level Miami Center
05:27AM 25.0267 -84.0400 23° Northeast 342 394 30,900  Level Miami Center
05:28AM 25.1139 -84.0008 22° Northeast 342 394 30,900  Level Miami Center
05:29AM 25.2022 -83.9600 23° Northeast 342 394 30,900  Level Miami Center
05:30AM 25.2939 -83.9186 22° Northeast 345 397 30,900  Level Miami Center
05:31AM 25.3808 -83.8786 23° Northeast 345 397 30,900  Level Miami Center
05:32AM 25.4692 -83.8375 23° Northeast 345 397 30,900  Level Miami Center
05:33AM 25.5581 -83.7972 22° Northeast 345 397 30,900  Level Miami Center
05:34AM 25.6472 -83.7561 23° Northeast 345 397 30,900  Level Miami Center
05:35AM 25.7369 -83.7139 23° Northeast 345 397 30,900  Level Miami Center
05:36AM 25.8247 -83.6736 22° Northeast 345 397 30,900  Level Miami Center
05:37AM 25.9147 -83.6322 22° Northeast 345 397 30,900  Level Miami Center
05:38AM 26.0031 -83.5906 23° Northeast 345 397 30,900  Level Miami Center
05:39AM 26.0917 -83.5486 23° Northeast 345 397 30,900  Level Miami Center
05:40AM 26.1825 -83.5086 22° Northeast 346 398 30,900  Level Miami Center
05:41AM 26.2706 -83.4661 23° Northeast 346 398 30,900  Level Miami Center
05:42AM 26.3597 -83.4236 23° Northeast 346 398 30,900 -300 Level Miami Center
05:43AM 26.4517 -83.3828 22° Northeast 348 400 30,300 -1,320 Descending Miami Center
05:44AM 26.5472 -83.3381 23° Northeast 364 419 28,300 -1,920 Descending Miami Center
05:45AM 26.6467 -83.2922 22° Northeast 380 437 26,500 -1,740 Descending Miami Center
05:46AM 26.7428 -83.2456 23° Northeast 377 434 24,800 -1,740 Descending Miami Center
05:47AM 26.8372 -83.1992 24° Northeast 376 433 23,100 -1,680 Descending Miami Center
05:48AM 26.9292 -83.1564 23° Northeast 363 418 21,500 -1,620 Descending Miami Center
05:49AM 27.0189 -83.1144 23° Northeast 354 407 19,800 -1,800 Descending Miami Center
05:50AM 27.1053 -83.0747 22° Northeast 342 394 18,000 -1,800 Descending Miami Center
05:51AM 27.1881 -83.0333 24° Northeast 331 381 16,300 -1,740 Descending Miami Center
05:52AM 27.2686 -82.9939 24° Northeast 322 371 14,500 -1,680 Descending Miami Center
05:53AM 27.3542 -82.9539 23° Northeast 329 379 12,900 -1,680 Descending Miami Center
05:54AM 27.4356 -82.9147 23° Northeast 322 371 11,200 -1,980 Descending Miami Center
05:55AM 27.5314 -82.8700 22° Northeast 311 358 9,000 -2,100 Descending Miami Center
05:56AM 27.6081 -82.8325 23° Northeast 304 350 7,000 -2,040 Descending Miami Center
05:57AM 27.6667 -82.8000 26° Northeast 294 338 5,600 -1,980 Descending Tampa TRACON
05:58AM 27.7333 -82.7667 24° Northeast 272 313 3,600 -1,740 Descending Tampa TRACON
05:58AM 27.7833 -82.7500 16° North 218 251 2,300 -900 Descending Tampa TRACON
06:00AM 27.8333 -82.7167 31° Northeast 165 190 1,800 -660 Descending Tampa TRACON
06:01AM 27.8667 -82.6833 41° Northeast 137 158 1,000 -840 Descending Tampa TRACON